Time,TemperatureF,DewpointF,PressureIn,WindDirection,WindDirectionDegrees,WindSpeedMPH,WindSpeedGustMPH,Humidity,HourlyPrecipIn,Conditions,Clouds,dailyrainin,SoftwareType,DateUTC
2013-06-26 00:00:00,67.8,66.6,29.78,South,180,0.0,-999.0,96,-99.99,,,0.00,Acu-Link.com,2013-06-26 04:00:00,
2013-06-26 00:15:00,67.8,66.6,29.76,West,270,0.0,-999.0,96,-99.99,,,0.00,Acu-Link.com,2013-06-26 04:15:00,
2013-06-26 00:30:00,67.8,66.6,29.78,SSE,157,0.0,-999.0,96,-99.99,,,0.00,Acu-Link.com,2013-06-26 04:30:00,
2013-06-26 00:45:00,67.8,66.6,29.77,WSW,247,0.0,-999.0,96,-99.99,,,0.00,Acu-Link.com,2013-06-26 04:45:00,
2013-06-26 01:01:00,67.6,66.4,29.78,SSW,202,1.7,-999.0,96,-99.99,,,0.00,Acu-Link.com,2013-06-26 05:01:00,
2013-06-26 01:16:00,67.5,66.3,29.77,WNW,292,2.7,-999.0,96,-99.99,,,0.00,Acu-Link.com,2013-06-26 05:16:00,
2013-06-26 01:31:00,67.6,66.4,29.76,South,180,1.7,-999.0,96,-99.99,,,0.00,Acu-Link.com,2013-06-26 05:31:00,
2013-06-26 01:46:00,67.5,66.0,29.79,West,270,2.2,-999.0,95,-99.99,,,0.01,Acu-Link.com,2013-06-26 05:46:00,
2013-06-26 02:01:00,67.5,66.0,29.78,SSE,157,2.2,-999.0,95,-99.99,,,0.02,Acu-Link.com,2013-06-26 06:01:00,
2013-06-26 02:16:00,67.3,65.8,29.78,WSW,247,0.0,-999.0,95,-99.99,,,0.02,Acu-Link.com,2013-06-26 06:16:00,
2013-06-26 02:31:00,67.1,65.9,29.77,West,270,1.1,-999.0,96,-99.99,,,0.02,Acu-Link.com,2013-06-26 06:31:00,
2013-06-26 02:46:00,67.1,65.9,29.78,ESE,112,1.7,-999.0,96,-99.99,,,0.03,Acu-Link.com,2013-06-26 06:46:00,
2013-06-26 03:01:00,67.1,65.9,29.77,NNE,22,1.7,-999.0,96,-99.99,,,0.04,Acu-Link.com,2013-06-26 07:01:00,
2013-06-26 03:16:00,66.9,65.7,29.77,West,270,2.2,-999.0,96,-99.99,,,0.06,Acu-Link.com,2013-06-26 07:16:00,
2013-06-26 03:32:00,66.9,65.4,29.76,WNW,292,4.7,-999.0,95,-99.99,,,0.08,Acu-Link.com,2013-06-26 07:32:00,
2013-06-26 03:47:00,66.9,65.4,29.76,South,180,0.0,-999.0,95,-99.99,,,0.08,Acu-Link.com,2013-06-26 07:47:00,
2013-06-26 04:02:00,66.7,65.5,29.76,West,270,0.0,-999.0,96,-99.99,,,0.09,Acu-Link.com,2013-06-26 08:02:00,
2013-06-26 04:17:00,66.7,65.5,29.76,NW,315,2.2,-999.0,96,-99.99,,,0.09,Acu-Link.com,2013-06-26 08:17:00,
2013-06-26 04:32:00,66.7,65.2,29.75,NNW,337,1.1,-999.0,95,-99.99,,,0.09,Acu-Link.com,2013-06-26 08:32:00,
2013-06-26 04:48:00,66.6,65.1,29.75,SSW,202,0.0,-999.0,95,-99.99,,,0.09,Acu-Link.com,2013-06-26 08:48:00,
2013-06-26 05:03:00,66.6,65.4,29.76,West,270,0.0,-999.0,96,-99.99,,,0.09,Acu-Link.com,2013-06-26 09:03:00,
2013-06-26 05:18:00,66.6,65.4,29.76,WSW,247,0.0,-999.0,96,-99.99,,,0.09,Acu-Link.com,2013-06-26 09:18:00,
2013-06-26 05:33:00,66.4,65.2,29.77,SE,135,0.0,-999.0,96,-99.99,,,0.09,Acu-Link.com,2013-06-26 09:33:00,
2013-06-26 05:48:00,66.2,65.3,29.76,ESE,112,0.0,-999.0,97,-99.99,,,0.09,Acu-Link.com,2013-06-26 09:48:00,
2013-06-26 06:03:00,66.0,65.1,29.75,WNW,292,1.1,-999.0,97,-99.99,,,0.09,Acu-Link.com,2013-06-26 10:03:00,
2013-06-26 06:18:00,66.4,65.5,29.76,West,270,0.0,-999.0,97,-99.99,,,0.09,Acu-Link.com,2013-06-26 10:18:00,
2013-06-26 06:34:00,66.9,65.7,29.76,North,0,2.2,-999.0,96,-99.99,,,0.09,Acu-Link.com,2013-06-26 10:34:00,
2013-06-26 06:49:00,67.5,66.0,29.76,East,90,0.0,-999.0,95,-99.99,,,0.09,Acu-Link.com,2013-06-26 10:49:00,
2013-06-26 07:04:00,67.6,65.8,29.76,NE,45,0.0,-999.0,94,-99.99,,,0.09,Acu-Link.com,2013-06-26 11:04:00,
2013-06-26 07:19:00,67.8,66.0,29.76,ESE,112,0.0,-999.0,94,-99.99,,,0.09,Acu-Link.com,2013-06-26 11:19:00,
2013-06-26 07:34:00,68.0,66.2,29.77,ESE,112,1.1,-999.0,94,-99.99,,,0.09,Acu-Link.com,2013-06-26 11:34:00,
2013-06-26 07:49:00,68.2,66.1,29.77,SSE,157,1.7,-999.0,93,-99.99,,,0.09,Acu-Link.com,2013-06-26 11:49:00,
2013-06-26 08:04:00,68.9,65.8,29.77,ESE,112,2.2,-999.0,90,-99.99,,,0.09,Acu-Link.com,2013-06-26 12:04:00,
2013-06-26 08:19:00,69.8,66.7,29.75,WNW,292,0.0,-999.0,90,-99.99,,,0.09,Acu-Link.com,2013-06-26 12:19:00,
2013-06-26 08:34:00,70.5,66.4,29.74,SSE,157,2.2,-999.0,87,-99.99,,,0.09,Acu-Link.com,2013-06-26 12:34:00,
2013-06-26 08:50:00,71.1,66.7,29.73,North,0,1.7,-999.0,86,-99.99,,,0.09,Acu-Link.com,2013-06-26 12:50:00,
2013-06-26 09:05:00,72.1,67.0,29.72,SSE,157,1.7,-999.0,84,-99.99,,,0.09,Acu-Link.com,2013-06-26 13:05:00,
2013-06-26 09:20:00,73.2,67.0,29.72,SSW,202,2.2,-999.0,81,-99.99,,,0.09,Acu-Link.com,2013-06-26 13:20:00,
2013-06-26 09:35:00,72.7,65.8,29.74,WNW,292,4.2,-999.0,79,-99.99,,,0.09,Acu-Link.com,2013-06-26 13:35:00,
2013-06-26 09:50:00,73.4,66.8,29.73,SSW,202,0.0,-999.0,80,-99.99,,,0.09,Acu-Link.com,2013-06-26 13:50:00,
2013-06-26 10:05:00,73.4,66.8,29.73,ESE,112,0.0,-999.0,80,-99.99,,,0.09,Acu-Link.com,2013-06-26 14:05:00,
2013-06-26 10:20:00,73.9,67.7,29.74,SW,225,0.0,-999.0,81,-99.99,,,0.09,Acu-Link.com,2013-06-26 14:20:00,
2013-06-26 10:36:00,75.9,68.2,29.75,East,90,0.0,-999.0,77,-99.99,,,0.09,Acu-Link.com,2013-06-26 14:36:00,
2013-06-26 10:51:00,76.5,68.0,29.76,NNE,22,1.7,-999.0,75,-99.99,,,0.09,Acu-Link.com,2013-06-26 14:51:00,
2013-06-26 11:06:00,77.0,67.7,29.76,East,90,0.0,-999.0,73,-99.99,,,0.09,Acu-Link.com,2013-06-26 15:06:00,
2013-06-26 11:21:00,76.5,67.6,29.77,West,270,1.7,-999.0,74,-99.99,,,0.09,Acu-Link.com,2013-06-26 15:21:00,
2013-06-26 11:36:00,76.5,68.0,29.76,NNE,22,1.7,-999.0,75,-99.99,,,0.09,Acu-Link.com,2013-06-26 15:36:00,
2013-06-26 11:51:00,77.7,67.9,29.76,West,270,1.7,-999.0,72,-99.99,,,0.09,Acu-Link.com,2013-06-26 15:51:00,
2013-06-26 12:06:00,77.7,67.5,29.76,SW,225,2.2,-999.0,71,-99.99,,,0.09,Acu-Link.com,2013-06-26 16:06:00,
2013-06-26 12:21:00,76.3,68.2,29.76,NW,315,0.0,-999.0,76,-99.99,,,0.09,Acu-Link.com,2013-06-26 16:21:00,
2013-06-26 12:36:00,77.7,68.3,29.76,WNW,292,2.7,-999.0,73,-99.99,,,0.09,Acu-Link.com,2013-06-26 16:36:00,
2013-06-26 12:52:00,76.6,67.3,29.76,SE,135,2.2,-999.0,73,-99.99,,,0.09,Acu-Link.com,2013-06-26 16:52:00,
2013-06-26 13:07:00,76.6,67.7,29.76,West,270,2.2,-999.0,74,-99.99,,,0.09,Acu-Link.com,2013-06-26 17:07:00,
2013-06-26 13:22:00,78.8,68.2,29.77,South,180,0.0,-999.0,70,-99.99,,,0.09,Acu-Link.com,2013-06-26 17:22:00,
2013-06-26 13:37:00,79.7,68.6,29.76,West,270,0.0,-999.0,69,-99.99,,,0.09,Acu-Link.com,2013-06-26 17:37:00,
2013-06-26 13:52:00,80.4,68.4,29.74,ENE,67,0.0,-999.0,67,-99.99,,,0.09,Acu-Link.com,2013-06-26 17:52:00,
2013-06-26 14:07:00,78.6,68.4,29.75,SSW,202,0.0,-999.0,71,-99.99,,,0.09,Acu-Link.com,2013-06-26 18:07:00,
2013-06-26 14:22:00,78.8,68.2,29.75,WNW,292,0.0,-999.0,70,-99.99,,,0.09,Acu-Link.com,2013-06-26 18:22:00,
2013-06-26 14:37:00,80.8,69.2,29.74,ENE,67,0.0,-999.0,68,-99.99,,,0.09,Acu-Link.com,2013-06-26 18:37:00,
2013-06-26 14:53:00,79.5,68.0,29.74,NW,315,2.2,-999.0,68,-99.99,,,0.09,Acu-Link.com,2013-06-26 18:53:00,
2013-06-26 15:08:00,80.8,68.4,29.73,NE,45,0.0,-999.0,66,-99.99,,,0.09,Acu-Link.com,2013-06-26 19:08:00,
2013-06-26 15:23:00,82.6,69.2,29.72,SE,135,0.0,-999.0,64,-99.99,,,0.09,Acu-Link.com,2013-06-26 19:23:00,
2013-06-26 15:38:00,82.8,68.9,29.72,South,180,0.0,-999.0,63,-99.99,,,0.09,Acu-Link.com,2013-06-26 19:38:00,
2013-06-26 15:53:00,80.8,68.4,29.72,SW,225,1.7,-999.0,66,-99.99,,,0.09,Acu-Link.com,2013-06-26 19:53:00,
2013-06-26 16:09:00,81.1,67.3,29.71,West,270,0.0,-999.0,63,-99.99,,,0.09,Acu-Link.com,2013-06-26 20:09:00,
2013-06-26 16:24:00,82.8,67.0,29.71,North,0,3.2,-999.0,59,-99.99,,,0.09,Acu-Link.com,2013-06-26 20:24:00,
2013-06-26 16:39:00,82.8,66.5,29.71,East,90,1.7,-999.0,58,-99.99,,,0.09,Acu-Link.com,2013-06-26 20:39:00,
2013-06-26 16:54:00,82.8,67.0,29.70,West,270,2.2,-999.0,59,-99.99,,,0.09,Acu-Link.com,2013-06-26 20:54:00,
2013-06-26 17:09:00,83.7,66.8,29.71,West,270,7.8,-999.0,57,-99.99,,,0.09,Acu-Link.com,2013-06-26 21:09:00,
2013-06-26 17:24:00,82.2,66.9,29.70,NNE,22,1.7,-999.0,60,-99.99,,,0.09,Acu-Link.com,2013-06-26 21:24:00,
2013-06-26 17:39:00,83.7,65.8,29.69,NNE,22,3.7,-999.0,55,-99.99,,,0.09,Acu-Link.com,2013-06-26 21:39:00,
2013-06-26 17:54:00,84.9,66.4,29.69,SE,135,1.1,-999.0,54,-99.99,,,0.09,Acu-Link.com,2013-06-26 21:54:00,
2013-06-26 18:09:00,85.8,66.7,29.70,West,270,1.1,-999.0,53,-99.99,,,0.09,Acu-Link.com,2013-06-26 22:09:00,
2013-06-26 18:25:00,84.2,66.3,29.69,West,270,0.0,-999.0,55,-99.99,,,0.09,Acu-Link.com,2013-06-26 22:25:00,
2013-06-26 18:40:00,83.8,66.4,29.69,West,270,0.0,-999.0,56,-99.99,,,0.09,Acu-Link.com,2013-06-26 22:40:00,
2013-06-26 18:55:00,87.4,66.4,29.69,WNW,292,0.0,-999.0,50,-99.99,,,0.09,Acu-Link.com,2013-06-26 22:55:00,
2013-06-26 19:10:00,85.6,67.0,29.69,East,90,0.0,-999.0,54,-99.99,,,0.09,Acu-Link.com,2013-06-26 23:10:00,
2013-06-26 19:25:00,84.6,67.1,29.68,NE,45,0.0,-999.0,56,-99.99,,,0.09,Acu-Link.com,2013-06-26 23:25:00,
2013-06-26 19:40:00,82.8,68.9,29.68,NNE,22,0.0,-999.0,63,-99.99,,,0.09,Acu-Link.com,2013-06-26 23:40:00,
2013-06-26 19:55:00,81.1,66.8,29.68,East,90,0.0,-999.0,62,-99.99,,,0.09,Acu-Link.com,2013-06-26 23:55:00,
2013-06-26 20:10:00,79.9,68.4,29.68,NNE,22,0.0,-999.0,68,-99.99,,,0.09,Acu-Link.com,2013-06-27 00:10:00,
2013-06-26 20:25:00,78.3,68.5,29.69,NNE,22,0.0,-999.0,72,-99.99,,,0.09,Acu-Link.com,2013-06-27 00:25:00,
2013-06-26 20:41:00,76.6,68.1,29.69,West,270,0.0,-999.0,75,-99.99,,,0.09,Acu-Link.com,2013-06-27 00:41:00,
2013-06-26 20:56:00,75.4,67.7,29.69,WSW,247,2.2,-999.0,77,-99.99,,,0.09,Acu-Link.com,2013-06-27 00:56:00,
2013-06-26 21:11:00,74.5,67.2,29.70,East,90,0.0,-999.0,78,-99.99,,,0.09,Acu-Link.com,2013-06-27 01:11:00,
2013-06-26 21:26:00,73.6,67.4,29.70,NE,45,0.0,-999.0,81,-99.99,,,0.09,Acu-Link.com,2013-06-27 01:26:00,
2013-06-26 21:41:00,72.7,66.9,29.72,NNE,22,1.7,-999.0,82,-99.99,,,0.09,Acu-Link.com,2013-06-27 01:41:00,
2013-06-26 21:56:00,72.1,66.6,29.72,NNE,22,0.0,-999.0,83,-99.99,,,0.09,Acu-Link.com,2013-06-27 01:56:00,
2013-06-26 22:12:00,71.4,67.0,29.72,NNE,22,0.0,-999.0,86,-99.99,,,0.09,Acu-Link.com,2013-06-27 02:12:00,
2013-06-26 22:27:00,70.9,66.5,29.73,North,0,0.0,-999.0,86,-99.99,,,0.09,Acu-Link.com,2013-06-27 02:27:00,
2013-06-26 22:42:00,70.3,66.2,29.71,WNW,292,0.0,-999.0,87,-99.99,,,0.09,Acu-Link.com,2013-06-27 02:42:00,
2013-06-26 22:57:00,70.0,65.6,29.71,West,270,0.0,-999.0,86,-99.99,,,0.09,Acu-Link.com,2013-06-27 02:57:00,
2013-06-26 23:12:00,69.6,65.9,29.71,NNE,22,0.0,-999.0,88,-99.99,,,0.09,Acu-Link.com,2013-06-27 03:12:00,
2013-06-26 23:27:00,69.4,66.0,29.70,ESE,112,0.0,-999.0,89,-99.99,,,0.09,Acu-Link.com,2013-06-27 03:27:00,
2013-06-26 23:43:00,68.7,65.6,29.69,NNE,22,0.0,-999.0,90,-99.99,,,0.09,Acu-Link.com,2013-06-27 03:43:00,
2013-06-26 23:58:00,68.7,65.6,29.70,ESE,112,0.0,-999.0,90,-99.99,,,0.09,Acu-Link.com,2013-06-27 03:58:00,